Time;durP1;ratioP1;P1;durP2;ratioP2;P2;SDS_P1;SDS_P2;PMS_P1;PMS_P2;Temp;Humidity;BMP_temperature;BMP_pressure;BME280_temperature;BME280_humidity;BME280_pressure;Samples;Min_cycle;Max_cycle;Signal;HPM_P1;HPM_P2
2021/03/25 00:01:38;;;;;;;;;;;3.10;99.90;;;;;;5094854;28;19908;-74
2021/03/25 00:04:04;;;;;;;;;;;2.90;99.90;;;;;;5095527;28;20280;-75
2021/03/25 00:06:30;;;;;;;;;;;2.80;99.90;;;;;;5097552;28;19934;-74
2021/03/25 00:08:56;;;;;;;;;;;2.70;99.90;;;;;;5115226;28;20060;-75
2021/03/25 00:11:21;;;;;;;;;;;2.60;99.90;;;;;;5115144;28;19973;-74
2021/03/25 00:13:47;;;;;;;;;;;2.60;99.90;;;;;;5115128;28;19912;-75
2021/03/25 00:16:13;;;;;;;;;;;2.60;99.90;;;;;;5115750;28;19908;-75
2021/03/25 00:18:39;;;;;;;;;;;2.70;99.90;;;;;;5115703;28;19940;-74
2021/03/25 00:21:05;;;;;;;;;;;2.70;99.90;;;;;;5114875;28;20372;-75
2021/03/25 00:23:31;;;;;;;;;;;2.70;99.90;;;;;;5114902;28;19912;-75
2021/03/25 00:25:57;;;;;;;;;;;2.70;99.90;;;;;;5114720;28;19908;-75
2021/03/25 00:28:22;;;;;;;;;;;2.60;99.90;;;;;;5114868;28;20319;-74
2021/03/25 00:30:48;;;;;;;;;;;2.50;99.90;;;;;;5114875;28;20010;-75
2021/03/25 00:33:14;;;;;;;;;;;2.40;99.90;;;;;;5114693;28;19907;-75
2021/03/25 00:35:40;;;;;;;;;;;2.40;99.90;;;;;;5097306;28;19923;-75
2021/03/25 00:38:07;;;;;;;;;;;2.40;99.90;;;;;;5094184;28;19962;-75
2021/03/25 00:40:32;;;;;;;;;;;2.40;99.90;;;;;;5094728;28;19915;-75
2021/03/25 00:42:59;;;;;;;;;;;2.30;99.90;;;;;;5093971;28;19909;-75
2021/03/25 00:45:27;;;;;;;;;;;2.20;99.90;;;;;;5093749;28;19919;-76
2021/03/25 00:47:52;;;;;;;;;;;2.30;99.90;;;;;;5093608;28;19965;-75
2021/03/25 00:50:26;;;;;;;;;;;2.20;99.90;;;;;;5094017;28;19913;-75
2021/03/25 00:52:51;;;;;;;;;;;2.20;99.90;;;;;;5094075;28;20010;-75
2021/03/25 00:55:17;;;;;;;;;;;2.20;99.90;;;;;;5094192;28;20020;-75
2021/03/25 00:57:42;;;;;;;;;;;2.10;99.90;;;;;;5093651;28;19912;-75
2021/03/25 01:00:08;;;;;;;;;;;2.10;99.90;;;;;;5093811;28;19962;-75
2021/03/25 01:02:34;;;;;;;;;;;2.00;99.90;;;;;;5094004;28;19908;-75
2021/03/25 01:04:59;;;;;;;;;;;2.00;99.90;;;;;;5088865;28;19930;-76
2021/03/25 01:07:25;;;;;;;;;;;1.90;99.90;;;;;;5091950;28;19954;-75
2021/03/25 01:09:51;;;;;;;;;;;1.90;99.90;;;;;;5093849;28;19908;-75
2021/03/25 01:12:16;;;;;;;;;;;1.80;99.90;;;;;;5094035;28;19954;-74
2021/03/25 01:14:42;;;;;;;;;;;1.80;99.90;;;;;;5092146;28;19914;-75
2021/03/25 01:17:07;;;;;;;;;;;1.80;99.90;;;;;;5093268;28;19912;-76
2021/03/25 01:19:33;;;;;;;;;;;1.80;99.90;;;;;;5092228;28;19969;-75
2021/03/25 01:21:59;;;;;;;;;;;1.80;99.90;;;;;;5093438;28;19908;-74
2021/03/25 01:24:25;;;;;;;;;;;1.70;99.90;;;;;;5093454;28;19916;-75
2021/03/25 01:26:51;;;;;;;;;;;1.70;99.90;;;;;;5093115;28;19962;-75
2021/03/25 01:29:16;;;;;;;;;;;1.70;99.90;;;;;;5093074;28;19908;-75
2021/03/25 01:31:42;;;;;;;;;;;1.70;99.90;;;;;;5093168;28;19916;-75
2021/03/25 01:34:10;;;;;;;;;;;1.70;99.90;;;;;;5089326;28;19912;-74
2021/03/25 01:36:35;;;;;;;;;;;1.70;99.90;;;;;;5092301;28;19934;-75
2021/03/25 01:39:01;;;;;;;;;;;1.70;99.90;;;;;;5093400;28;20420;-75
2021/03/25 01:41:28;;;;;;;;;;;1.60;99.90;;;;;;5093000;28;19912;-75
2021/03/25 01:43:54;;;;;;;;;;;1.50;99.90;;;;;;5092683;28;20294;-75
2021/03/25 01:46:20;;;;;;;;;;;1.50;99.90;;;;;;5092613;28;19999;-74
2021/03/25 01:48:47;;;;;;;;;;;1.50;99.90;;;;;;5092968;28;19939;-75
2021/03/25 01:51:16;;;;;;;;;;;1.50;99.90;;;;;;5091339;28;19919;-75
2021/03/25 01:53:47;;;;;;;;;;;1.40;99.90;;;;;;5092915;28;19908;-75
2021/03/25 01:56:12;;;;;;;;;;;1.40;99.90;;;;;;5090756;28;19916;-75
2021/03/25 01:58:43;;;;;;;;;;;1.30;99.90;;;;;;5092692;28;19965;-75
2021/03/25 02:01:28;;;;;;;;;;;1.30;99.90;;;;;;5091357;28;19908;-74
2021/03/25 02:04:08;;;;;;;;;;;1.20;99.90;;;;;;5090739;28;19913;-75
2021/03/25 02:06:41;;;;;;;;;;;1.30;99.90;;;;;;5091259;28;19963;-75
2021/03/25 02:09:21;;;;;;;;;;;1.30;99.90;;;;;;5091144;28;20339;-75
2021/03/25 02:11:47;;;;;;;;;;;1.30;99.90;;;;;;5092454;28;19912;-75
2021/03/25 02:14:28;;;;;;;;;;;1.30;99.90;;;;;;5092799;28;19908;-74
2021/03/25 02:17:11;;;;;;;;;;;1.30;99.90;;;;;;5092165;28;20331;-75
2021/03/25 02:19:45;;;;;;;;;;;1.20;99.90;;;;;;5092251;28;19908;-74
2021/03/25 02:22:14;;;;;;;;;;;1.20;99.90;;;;;;5092234;28;20408;-75
2021/03/25 02:24:58;;;;;;;;;;;1.20;99.90;;;;;;5092132;28;19912;-75
2021/03/25 02:27:34;;;;;;;;;;;1.20;99.90;;;;;;5091593;28;19908;-75
2021/03/25 02:30:01;;;;;;;;;;;1.20;99.90;;;;;;5092011;28;19916;-75
2021/03/25 02:32:33;;;;;;;;;;;1.20;99.90;;;;;;5091938;28;19989;-74
2021/03/25 02:35:00;;;;;;;;;;;1.10;99.90;;;;;;5087157;28;19916;-75
2021/03/25 02:37:27;;;;;;;;;;;1.10;99.90;;;;;;5090251;28;19908;-75
2021/03/25 02:40:01;;;;;;;;;;;1.10;99.90;;;;;;5090652;28;19908;-74
2021/03/25 02:42:34;;;;;;;;;;;1.20;99.90;;;;;;5091844;28;19912;-74
2021/03/25 02:45:12;;;;;;;;;;;1.20;99.90;;;;;;5091911;28;19919;-75
2021/03/25 02:47:39;;;;;;;;;;;1.10;99.90;;;;;;5091528;28;20373;-75
2021/03/25 02:50:11;;;;;;;;;;;1.10;99.90;;;;;;5091853;28;20023;-74
2021/03/25 02:52:40;;;;;;;;;;;1.10;99.90;;;;;;5091506;28;19962;-75
2021/03/25 02:55:07;;;;;;;;;;;1.10;99.90;;;;;;5091728;28;20327;-75
2021/03/25 02:57:51;;;;;;;;;;;1.10;99.90;;;;;;5091574;28;20011;-75
2021/03/25 03:00:19;;;;;;;;;;;1.00;99.90;;;;;;5091794;28;19908;-74
2021/03/25 03:02:47;;;;;;;;;;;0.80;99.90;;;;;;5091589;28;20345;-75
2021/03/25 03:05:15;;;;;;;;;;;0.80;99.90;;;;;;5085300;28;19912;-75
2021/03/25 03:07:43;;;;;;;;;;;0.70;99.90;;;;;;5090379;28;19951;-75
2021/03/25 03:10:10;;;;;;;;;;;0.70;99.90;;;;;;5091619;28;20361;-75
2021/03/25 03:12:41;;;;;;;;;;;0.70;99.90;;;;;;5091319;28;19916;-76
2021/03/25 03:15:25;;;;;;;;;;;0.80;99.90;;;;;;5091553;28;19908;-74
2021/03/25 03:18:01;;;;;;;;;;;0.80;99.90;;;;;;5091577;28;19912;-75
2021/03/25 03:20:36;;;;;;;;;;;0.80;99.90;;;;;;5091599;28;19908;-75
2021/03/25 03:23:02;;;;;;;;;;;0.70;99.90;;;;;;5091627;28;19908;-75
2021/03/25 03:25:28;;;;;;;;;;;0.70;99.90;;;;;;5091293;28;20438;-75
2021/03/25 03:27:57;;;;;;;;;;;0.70;99.90;;;;;;5091048;28;20405;-75
2021/03/25 03:30:28;;;;;;;;;;;0.70;99.90;;;;;;5091678;28;19966;-75
2021/03/25 03:32:59;;;;;;;;;;;0.70;99.90;;;;;;5091293;28;19952;-75
2021/03/25 03:35:44;;;;;;;;;;;0.80;99.90;;;;;;5086396;28;19916;-75
2021/03/25 03:38:23;;;;;;;;;;;0.70;99.90;;;;;;5107130;28;19919;-75
2021/03/25 03:40:50;;;;;;;;;;;0.60;99.90;;;;;;5111553;28;19912;-74
2021/03/25 03:43:16;;;;;;;;;;;0.60;99.90;;;;;;5111334;28;20391;-75
2021/03/25 03:45:43;;;;;;;;;;;0.60;99.90;;;;;;5111206;28;19907;-75
2021/03/25 03:48:12;;;;;;;;;;;0.70;99.90;;;;;;5110236;28;19915;-75
2021/03/25 03:50:43;;;;;;;;;;;0.70;99.90;;;;;;5111439;28;19912;-75
2021/03/25 03:53:08;;;;;;;;;;;0.70;99.90;;;;;;5111320;28;20292;-75
2021/03/25 03:55:34;;;;;;;;;;;0.60;99.90;;;;;;5111426;28;19908;-75
2021/03/25 03:58:02;;;;;;;;;;;0.60;99.90;;;;;;5111133;28;19914;-75
2021/03/25 04:00:34;;;;;;;;;;;0.60;99.90;;;;;;5111602;28;19912;-75
2021/03/25 04:03:08;;;;;;;;;;;0.60;99.90;;;;;;5111717;28;20271;-75
2021/03/25 04:05:37;;;;;;;;;;;0.60;99.90;;;;;;5094834;28;19922;-74
2021/03/25 04:08:05;;;;;;;;;;;0.60;99.90;;;;;;5090725;28;19908;-75
2021/03/25 04:10:40;;;;;;;;;;;0.60;99.90;;;;;;5090903;28;19908;-74
2021/03/25 04:13:08;;;;;;;;;;;0.50;99.90;;;;;;5090956;28;19908;-75
2021/03/25 04:15:34;;;;;;;;;;;0.50;99.90;;;;;;5090787;28;20338;-75
2021/03/25 04:18:08;;;;;;;;;;;0.50;99.90;;;;;;5090826;28;19908;-75
2021/03/25 04:20:36;;;;;;;;;;;0.60;99.90;;;;;;5094442;28;19931;-75
2021/03/25 04:23:03;;;;;;;;;;;0.60;99.90;;;;;;5094418;28;19947;-75
2021/03/25 04:25:39;;;;;;;;;;;0.60;99.90;;;;;;5094430;28;20408;-76
2021/03/25 04:28:09;;;;;;;;;;;0.60;99.90;;;;;;5093163;28;19908;-75
2021/03/25 04:30:42;;;;;;;;;;;0.50;99.90;;;;;;5094333;28;20433;-75
2021/03/25 04:33:08;;;;;;;;;;;0.40;99.90;;;;;;5094436;28;19958;-75
2021/03/25 04:35:34;;;;;;;;;;;0.40;99.90;;;;;;5087819;28;19928;-75
2021/03/25 04:38:00;;;;;;;;;;;0.50;99.90;;;;;;5093975;28;19912;-75
2021/03/25 04:40:33;;;;;;;;;;;0.50;99.90;;;;;;5094096;28;19915;-75
2021/03/25 04:42:59;;;;;;;;;;;0.50;99.90;;;;;;5092805;28;20383;-75
2021/03/25 04:45:43;;;;;;;;;;;0.50;99.90;;;;;;5094093;28;19908;-75
2021/03/25 04:48:11;;;;;;;;;;;0.50;99.90;;;;;;5092723;28;19908;-75
2021/03/25 04:50:39;;;;;;;;;;;0.40;99.90;;;;;;5093898;28;20338;-75
2021/03/25 04:53:07;;;;;;;;;;;0.40;99.90;;;;;;5093896;28;19916;-75
2021/03/25 04:55:34;;;;;;;;;;;0.40;99.90;;;;;;5093517;28;19955;-76
2021/03/25 04:58:01;;;;;;;;;;;0.30;99.90;;;;;;5093729;28;19919;-75
2021/03/25 05:00:31;;;;;;;;;;;0.40;99.90;;;;;;5093815;28;19912;-75
2021/03/25 05:02:59;;;;;;;;;;;0.40;99.90;;;;;;5093566;28;19930;-76
2021/03/25 05:05:26;;;;;;;;;;;0.40;99.90;;;;;;5093336;28;19915;-76
2021/03/25 05:07:54;;;;;;;;;;;0.40;99.90;;;;;;5106994;28;19918;-75
2021/03/25 05:10:27;;;;;;;;;;;0.40;99.90;;;;;;5113820;28;19969;-75
2021/03/25 05:12:54;;;;;;;;;;;0.30;99.90;;;;;;5113940;28;19908;-75
2021/03/25 05:15:20;;;;;;;;;;;0.40;99.90;;;;;;5113764;28;19908;-75
2021/03/25 05:17:52;;;;;;;;;;;0.30;99.90;;;;;;5113361;28;19995;-75
2021/03/25 05:20:19;;;;;;;;;;;0.40;99.90;;;;;;5114157;28;19965;-75
2021/03/25 05:22:50;;;;;;;;;;;0.40;99.90;;;;;;5113473;28;19948;-75
2021/03/25 05:25:16;;;;;;;;;;;0.40;99.90;;;;;;5113944;28;19964;-75
2021/03/25 05:27:46;;;;;;;;;;;0.40;99.90;;;;;;5113179;28;20364;-75
2021/03/25 05:30:22;;;;;;;;;;;0.30;99.90;;;;;;5112733;28;20376;-76
2021/03/25 05:32:50;;;;;;;;;;;0.30;99.90;;;;;;5113494;28;19915;-75
2021/03/25 05:35:18;;;;;;;;;;;0.30;99.90;;;;;;5099579;28;19941;-76
2021/03/25 05:37:44;;;;;;;;;;;0.30;99.90;;;;;;5092555;28;19923;-76
2021/03/25 05:40:14;;;;;;;;;;;0.30;99.90;;;;;;5092938;28;19987;-75
2021/03/25 05:42:43;;;;;;;;;;;0.20;99.90;;;;;;5092717;28;19912;-75
2021/03/25 05:45:32;;;;;;;;;;;0.20;99.90;;;;;;5092798;28;19912;-75
2021/03/25 05:48:20;;;;;;;;;;;0.30;99.90;;;;;;5085448;28;19916;-76
2021/03/25 05:50:49;;;;;;;;;;;0.30;99.90;;;;;;5092752;28;20451;-75
2021/03/25 05:53:14;;;;;;;;;;;0.40;99.90;;;;;;5092697;28;19909;-75
2021/03/25 05:55:40;;;;;;;;;;;0.40;99.90;;;;;;5092784;28;19908;-75
2021/03/25 05:58:15;;;;;;;;;;;0.40;99.90;;;;;;5092547;28;20204;-75
2021/03/25 06:00:43;;;;;;;;;;;0.40;99.90;;;;;;5092582;28;19999;-75
2021/03/25 06:03:10;;;;;;;;;;;0.30;99.90;;;;;;5092340;28;19908;-75
2021/03/25 06:05:36;;;;;;;;;;;0.40;99.90;;;;;;5087312;28;19908;-76
2021/03/25 06:08:25;;;;;;;;;;;0.50;99.90;;;;;;5091986;28;19908;-75
2021/03/25 06:11:09;;;;;;;;;;;0.60;99.90;;;;;;5085619;28;20322;-75
2021/03/25 06:13:35;;;;;;;;;;;0.70;99.90;;;;;;5092418;28;19954;-75
2021/03/25 06:16:00;;;;;;;;;;;0.80;99.90;;;;;;5091850;28;19958;-75
2021/03/25 06:18:50;;;;;;;;;;;0.80;99.90;;;;;;5092352;28;20552;-75
2021/03/25 06:21:15;;;;;;;;;;;0.90;99.90;;;;;;5092161;28;19915;-75
2021/03/25 06:23:43;;;;;;;;;;;1.10;99.90;;;;;;5091992;28;19912;-75
2021/03/25 06:26:29;;;;;;;;;;;1.20;99.90;;;;;;5091764;28;19958;-75
2021/03/25 06:29:02;;;;;;;;;;;1.30;99.90;;;;;;5091641;28;19915;-76
2021/03/25 06:31:46;;;;;;;;;;;1.40;99.90;;;;;;5091825;28;19908;-75
2021/03/25 06:34:17;;;;;;;;;;;1.50;99.90;;;;;;5087531;28;19995;-75
2021/03/25 06:36:43;;;;;;;;;;;1.70;99.90;;;;;;5083609;28;19912;-76
2021/03/25 06:39:29;;;;;;;;;;;1.80;99.90;;;;;;5090473;28;19908;-75
2021/03/25 06:41:54;;;;;;;;;;;1.90;99.90;;;;;;5091159;28;19908;-75
2021/03/25 06:44:22;;;;;;;;;;;2.00;99.90;;;;;;5091714;28;19919;-75
2021/03/25 06:46:50;;;;;;;;;;;2.20;99.90;;;;;;5091430;28;19927;-75
2021/03/25 06:49:20;;;;;;;;;;;2.30;99.90;;;;;;5091744;28;19908;-75
2021/03/25 06:51:46;;;;;;;;;;;2.40;99.90;;;;;;5091566;28;19908;-75
2021/03/25 06:54:16;;;;;;;;;;;2.50;99.90;;;;;;5091623;28;20399;-75
2021/03/25 06:56:52;;;;;;;;;;;2.70;99.90;;;;;;5091141;28;19918;-75
2021/03/25 06:59:35;;;;;;;;;;;2.90;99.90;;;;;;5090362;28;20094;-76
2021/03/25 07:02:09;;;;;;;;;;;3.00;99.90;;;;;;5091725;28;19930;-75
2021/03/25 07:04:38;;;;;;;;;;;3.10;99.90;;;;;;5086607;28;19985;-75
2021/03/25 07:07:05;;;;;;;;;;;3.30;99.90;;;;;;5090799;28;20497;-75
2021/03/25 07:09:32;;;;;;;;;;;3.40;99.90;;;;;;5091476;28;20011;-75
2021/03/25 07:11:58;;;;;;;;;;;3.60;99.90;;;;;;5091345;28;20364;-75
2021/03/25 07:14:36;;;;;;;;;;;3.70;99.90;;;;;;5091271;28;19908;-75
2021/03/25 07:17:02;;;;;;;;;;;3.90;99.90;;;;;;5090986;28;19952;-75
2021/03/25 07:19:28;;;;;;;;;;;4.10;99.90;;;;;;5091225;28;19915;-75
2021/03/25 07:22:14;;;;;;;;;;;4.20;99.90;;;;;;5091220;28;20319;-75
2021/03/25 07:24:39;;;;;;;;;;;4.40;99.90;;;;;;5090517;28;19923;-75
2021/03/25 07:27:08;;;;;;;;;;;4.60;99.90;;;;;;5087328;28;19912;-75
2021/03/25 07:29:35;;;;;;;;;;;4.70;99.90;;;;;;5091035;28;19940;-75
2021/03/25 07:32:21;;;;;;;;;;;4.90;99.90;;;;;;5091215;28;19912;-75
2021/03/25 07:34:48;;;;;;;;;;;5.10;99.90;;;;;;5089417;28;19912;-75
2021/03/25 07:37:15;;;;;;;;;;;5.30;99.90;;;;;;5090204;28;20453;-75
2021/03/25 07:39:49;;;;;;;;;;;5.50;99.90;;;;;;5090818;28;20357;-75
2021/03/25 07:42:28;;;;;;;;;;;5.70;99.90;;;;;;5090682;28;19908;-75
2021/03/25 07:44:53;;;;;;;;;;;5.90;99.90;;;;;;5090405;28;19955;-75
2021/03/25 07:47:32;;;;;;;;;;;6.20;99.90;;;;;;5089536;28;19954;-75
2021/03/25 07:50:17;;;;;;;;;;;6.40;99.90;;;;;;5091113;28;19912;-75
2021/03/25 07:52:44;;;;;;;;;;;6.70;99.90;;;;;;5090298;28;20355;-75
2021/03/25 07:55:18;;;;;;;;;;;7.10;99.90;;;;;;5095014;28;20340;-75
2021/03/25 07:57:45;;;;;;;;;;;7.50;99.90;;;;;;5094740;28;19909;-76
2021/03/25 08:00:19;;;;;;;;;;;8.20;99.90;;;;;;5094960;28;20323;-76
2021/03/25 08:02:45;;;;;;;;;;;9.10;99.90;;;;;;5094899;28;19912;-76
2021/03/25 08:05:21;;;;;;;;;;;10.00;99.90;;;;;;5094528;28;20360;-76
2021/03/25 08:07:48;;;;;;;;;;;10.90;99.90;;;;;;5094440;28;20327;-76
2021/03/25 08:10:25;;;;;;;;;;;11.60;98.50;;;;;;5092093;28;19952;-77
2021/03/25 08:12:59;;;;;;;;;;;12.30;97.80;;;;;;5091185;28;19908;-77
2021/03/25 08:15:33;;;;;;;;;;;13.00;95.60;;;;;;5091603;28;19915;-76
2021/03/25 08:18:08;;;;;;;;;;;13.50;95.60;;;;;;5094112;28;19908;-76
2021/03/25 08:20:45;;;;;;;;;;;14.00;93.70;;;;;;5094604;28;19998;-77
2021/03/25 08:23:29;;;;;;;;;;;14.60;93.40;;;;;;5093969;28;20245;-77
2021/03/25 08:26:04;;;;;;;;;;;15.20;91.60;;;;;;5093836;28;19915;-77
2021/03/25 08:28:38;;;;;;;;;;;15.80;89.50;;;;;;5094549;28;19908;-77
2021/03/25 08:31:16;;;;;;;;;;;16.20;84.90;;;;;;5094095;28;19999;-77
2021/03/25 08:34:03;;;;;;;;;;;16.50;85.80;;;;;;5094355;28;20002;-78
2021/03/25 08:36:37;;;;;;;;;;;16.60;84.20;;;;;;5100543;28;20292;-77
2021/03/25 08:39:26;;;;;;;;;;;16.90;78.10;;;;;;5093880;28;19919;-78
2021/03/25 08:41:58;;;;;;;;;;;17.10;81.20;;;;;;5083183;28;20361;-77
2021/03/25 08:44:26;;;;;;;;;;;17.40;77.40;;;;;;5094228;28;20403;-77
2021/03/25 08:46:55;;;;;;;;;;;17.70;74.30;;;;;;5093650;28;19966;-77
2021/03/25 08:49:26;;;;;;;;;;;17.80;75.10;;;;;;5093925;28;20295;-75
2021/03/25 08:51:52;;;;;;;;;;;18.10;74.60;;;;;;5093769;28;19931;-75
2021/03/25 08:54:27;;;;;;;;;;;18.40;73.10;;;;;;5093868;28;19912;-76
2021/03/25 08:57:00;;;;;;;;;;;18.60;70.10;;;;;;5092082;28;20295;-76
2021/03/25 08:59:28;;;;;;;;;;;18.70;70.70;;;;;;5093587;28;20011;-75
2021/03/25 09:01:55;;;;;;;;;;;19.00;70.80;;;;;;5092483;28;19938;-75
2021/03/25 09:04:22;;;;;;;;;;;19.30;71.30;;;;;;5092829;28;19966;-76
2021/03/25 09:06:48;;;;;;;;;;;19.70;69.70;;;;;;5101126;28;19908;-76
2021/03/25 09:09:29;;;;;;;;;;;20.00;66.40;;;;;;5093729;28;19909;-76
2021/03/25 09:11:55;;;;;;;;;;;20.30;66.00;;;;;;5092339;28;19967;-75
2021/03/25 09:14:22;;;;;;;;;;;20.50;64.80;;;;;;5092704;28;19912;-76
2021/03/25 09:16:48;;;;;;;;;;;20.50;63.50;;;;;;5113069;28;19908;-75
2021/03/25 09:19:22;;;;;;;;;;;20.50;63.90;;;;;;5113759;28;20003;-76
2021/03/25 09:21:48;;;;;;;;;;;20.60;64.70;;;;;;5094044;28;19942;-76
2021/03/25 09:24:14;;;;;;;;;;;20.70;64.50;;;;;;5092726;28;19912;-76
2021/03/25 09:26:40;;;;;;;;;;;21.10;61.90;;;;;;5092994;28;19965;-76
2021/03/25 09:29:07;;;;;;;;;;;21.50;62.10;;;;;;5093261;28;19916;-75
2021/03/25 09:32:02;;;;;;;;;;;21.80;62.60;;;;;;5091878;28;19908;-76
2021/03/25 09:34:48;;;;;;;;;;;22.10;63.80;;;;;;5081019;28;20365;-76
2021/03/25 09:37:29;;;;;;;;;;;22.40;60.10;;;;;;5100577;28;19955;-76
2021/03/25 09:40:30;;;;;;;;;;;22.60;60.60;;;;;;5113375;28;19915;-76
2021/03/25 09:43:09;;;;;;;;;;;22.80;58.60;;;;;;5113085;28;19987;-76
2021/03/25 09:45:36;;;;;;;;;;;22.90;59.10;;;;;;5111862;28;19911;-77
2021/03/25 09:48:03;;;;;;;;;;;22.80;58.10;;;;;;5113192;28;19908;-76
2021/03/25 09:50:29;;;;;;;;;;;22.70;58.20;;;;;;5113338;28;19908;-76
2021/03/25 09:53:04;;;;;;;;;;;22.70;57.90;;;;;;5104370;28;20336;-76
2021/03/25 09:55:31;;;;;;;;;;;22.90;58.60;;;;;;5092680;28;19908;-77
2021/03/25 09:57:57;;;;;;;;;;;23.00;57.40;;;;;;5092457;28;19912;-76
2021/03/25 10:00:24;;;;;;;;;;;23.00;56.80;;;;;;5092543;28;19915;-76
2021/03/25 10:02:53;;;;;;;;;;;23.10;56.90;;;;;;5092539;28;19908;-77
2021/03/25 10:05:30;;;;;;;;;;;23.00;58.40;;;;;;5087337;28;19961;-76
2021/03/25 10:07:56;;;;;;;;;;;23.00;55.00;;;;;;5090979;28;19915;-77
2021/03/25 10:10:41;;;;;;;;;;;22.70;56.00;;;;;;5092387;28;19908;-76
2021/03/25 10:13:13;;;;;;;;;;;22.60;55.40;;;;;;5092221;28;19998;-76
2021/03/25 10:15:43;;;;;;;;;;;22.50;55.40;;;;;;5090822;28;20280;-77
2021/03/25 10:18:10;;;;;;;;;;;22.70;56.70;;;;;;5092100;28;20003;-76
2021/03/25 10:20:50;;;;;;;;;;;22.70;56.10;;;;;;5092171;28;19908;-76
2021/03/25 10:23:25;;;;;;;;;;;22.70;55.90;;;;;;5090543;28;19908;-77
2021/03/25 10:25:53;;;;;;;;;;;23.10;57.80;;;;;;5091831;28;19908;-76
2021/03/25 10:28:21;;;;;;;;;;;23.60;54.90;;;;;;5092039;28;19915;-76
2021/03/25 10:30:47;;;;;;;;;;;24.10;56.30;;;;;;5092664;28;19916;-76
2021/03/25 10:33:14;;;;;;;;;;;24.60;54.20;;;;;;5091642;28;19908;-77
2021/03/25 10:35:44;;;;;;;;;;;24.90;55.90;;;;;;5087054;28;19995;-76
2021/03/25 10:38:13;;;;;;;;;;;25.10;53.40;;;;;;5091850;28;19961;-76
2021/03/25 10:40:40;;;;;;;;;;;24.80;52.80;;;;;;5091884;28;19916;-76
2021/03/25 10:43:07;;;;;;;;;;;24.60;54.00;;;;;;5091936;28;19915;-76
2021/03/25 10:45:34;;;;;;;;;;;24.50;53.10;;;;;;5091631;28;19965;-76
2021/03/25 10:48:07;;;;;;;;;;;24.50;52.90;;;;;;5091526;28;19912;-76
2021/03/25 10:50:37;;;;;;;;;;;24.30;52.40;;;;;;5091726;28;19908;-76
2021/03/25 10:53:04;;;;;;;;;;;24.20;54.10;;;;;;5090327;28;19908;-76
2021/03/25 10:55:35;;;;;;;;;;;24.00;51.50;;;;;;5091456;28;20262;-76
2021/03/25 10:58:02;;;;;;;;;;;24.00;52.50;;;;;;5091742;28;19926;-77
2021/03/25 11:00:30;;;;;;;;;;;24.00;53.00;;;;;;5092107;28;19999;-76
2021/03/25 11:02:58;;;;;;;;;;;24.00;53.70;;;;;;5091988;28;19908;-76
2021/03/25 11:05:25;;;;;;;;;;;24.10;51.70;;;;;;5080142;28;20314;-77
2021/03/25 11:08:01;;;;;;;;;;;24.10;52.70;;;;;;5105212;28;20294;-76
2021/03/25 11:10:26;;;;;;;;;;;24.20;53.10;;;;;;5089768;28;20345;-76
2021/03/25 11:13:04;;;;;;;;;;;24.20;52.10;;;;;;5091303;28;19995;-76
2021/03/25 11:15:31;;;;;;;;;;;24.50;52.30;;;;;;5091407;28;19912;-78
2021/03/25 11:17:58;;;;;;;;;;;25.00;52.70;;;;;;5091167;28;19976;-76
2021/03/25 11:20:26;;;;;;;;;;;25.40;51.60;;;;;;5091336;28;19908;-76
2021/03/25 11:22:54;;;;;;;;;;;25.30;51.50;;;;;;5091423;28;19908;-76
2021/03/25 11:25:21;;;;;;;;;;;25.30;51.80;;;;;;5091104;28;19954;-76
2021/03/25 11:27:46;;;;;;;;;;;25.10;50.70;;;;;;5091489;28;20013;-76
2021/03/25 11:30:27;;;;;;;;;;;24.60;50.20;;;;;;5095573;28;20377;-76
2021/03/25 11:32:53;;;;;;;;;;;24.10;51.30;;;;;;5095510;28;19915;-75
2021/03/25 11:35:21;;;;;;;;;;;23.50;53.60;;;;;;5090239;28;19920;-76
2021/03/25 11:37:47;;;;;;;;;;;23.40;54.30;;;;;;5094973;28;19962;-75
2021/03/25 11:40:14;;;;;;;;;;;23.60;55.00;;;;;;5095480;28;19916;-76
2021/03/25 11:42:41;;;;;;;;;;;23.90;52.70;;;;;;5096742;28;19908;-76
2021/03/25 11:45:07;;;;;;;;;;;24.30;53.00;;;;;;5106184;28;20258;-76
2021/03/25 11:47:33;;;;;;;;;;;24.50;52.10;;;;;;5094370;28;19908;-76
2021/03/25 11:49:58;;;;;;;;;;;24.20;53.40;;;;;;5095244;28;19935;-78
2021/03/25 11:52:24;;;;;;;;;;;24.30;52.60;;;;;;5094926;28;20292;-76
2021/03/25 11:54:58;;;;;;;;;;;24.10;50.00;;;;;;5095014;28;19912;-76
2021/03/25 11:57:26;;;;;;;;;;;23.90;53.70;;;;;;5094812;28;19915;-76
2021/03/25 12:00:10;;;;;;;;;;;24.10;52.30;;;;;;5094874;28;19908;-76
2021/03/25 12:02:36;;;;;;;;;;;23.80;51.20;;;;;;5093562;28;19908;-76
2021/03/25 12:05:22;;;;;;;;;;;23.30;52.10;;;;;;5090038;28;19916;-75
2021/03/25 12:07:58;;;;;;;;;;;22.60;52.80;;;;;;5094410;28;20450;-75
2021/03/25 12:10:24;;;;;;;;;;;22.20;55.80;;;;;;5094784;28;19908;-75
2021/03/25 12:12:49;;;;;;;;;;;22.00;53.80;;;;;;5094656;28;19915;-76
2021/03/25 12:15:16;;;;;;;;;;;21.70;54.00;;;;;;5094282;28;20326;-76
2021/03/25 12:17:49;;;;;;;;;;;21.40;54.50;;;;;;5094325;28;19908;-76
2021/03/25 12:20:20;;;;;;;;;;;21.20;55.70;;;;;;5094728;28;20369;-76
2021/03/25 12:22:45;;;;;;;;;;;21.00;55.70;;;;;;5094514;28;19930;-76
2021/03/25 12:25:11;;;;;;;;;;;20.80;56.80;;;;;;5094634;28;20357;-75
2021/03/25 12:27:36;;;;;;;;;;;20.50;57.80;;;;;;5093880;28;19908;-75
2021/03/25 12:30:02;;;;;;;;;;;20.10;56.50;;;;;;5094287;28;19912;-75
2021/03/25 12:32:29;;;;;;;;;;;19.80;57.50;;;;;;5093961;28;19991;-76
2021/03/25 12:34:55;;;;;;;;;;;19.70;57.50;;;;;;5089233;28;19923;-75
2021/03/25 12:37:22;;;;;;;;;;;19.50;57.70;;;;;;5093704;28;19912;-75
2021/03/25 12:39:49;;;;;;;;;;;19.20;56.80;;;;;;5093872;28;19939;-75
2021/03/25 12:42:15;;;;;;;;;;;19.10;57.60;;;;;;5092604;28;19922;-75
2021/03/25 12:44:40;;;;;;;;;;;19.00;58.60;;;;;;5094111;28;19908;-75
2021/03/25 12:47:08;;;;;;;;;;;19.10;57.80;;;;;;5093755;28;19966;-76
2021/03/25 12:49:34;;;;;;;;;;;19.10;58.50;;;;;;5092700;28;19908;-75
2021/03/25 12:52:00;;;;;;;;;;;19.00;56.40;;;;;;5094011;28;19958;-77
2021/03/25 12:54:25;;;;;;;;;;;18.70;58.70;;;;;;5093960;28;19912;-75
2021/03/25 12:56:56;;;;;;;;;;;18.60;60.00;;;;;;5093606;28;19930;-75
2021/03/25 12:59:21;;;;;;;;;;;18.50;58.90;;;;;;5093668;28;19908;-75
2021/03/25 13:01:47;;;;;;;;;;;18.50;57.90;;;;;;5092523;28;20350;-75
2021/03/25 13:04:12;;;;;;;;;;;18.50;58.30;;;;;;5089297;28;19968;-75
2021/03/25 13:06:38;;;;;;;;;;;18.50;58.20;;;;;;5091052;28;19919;-77
2021/03/25 13:09:04;;;;;;;;;;;18.50;59.20;;;;;;5097478;28;19908;-76
2021/03/25 13:11:30;;;;;;;;;;;18.50;59.00;;;;;;5085294;28;19915;-75
2021/03/25 13:13:56;;;;;;;;;;;18.40;57.50;;;;;;5093236;28;19912;-75
2021/03/25 13:16:22;;;;;;;;;;;18.30;57.50;;;;;;5093192;28;19908;-75
2021/03/25 13:18:48;;;;;;;;;;;18.30;57.80;;;;;;5093448;28;20003;-75
2021/03/25 13:21:13;;;;;;;;;;;18.30;59.80;;;;;;5093335;28;19951;-74
2021/03/25 13:23:39;;;;;;;;;;;18.30;58.00;;;;;;5093425;28;19975;-75
2021/03/25 13:26:06;;;;;;;;;;;18.30;58.00;;;;;;5093045;28;19916;-75
2021/03/25 13:28:32;;;;;;;;;;;18.20;57.00;;;;;;5093177;28;20269;-75
2021/03/25 13:30:57;;;;;;;;;;;18.10;57.20;;;;;;5093108;28;19915;-75
2021/03/25 13:33:23;;;;;;;;;;;18.20;57.90;;;;;;5093039;28;19908;-75
2021/03/25 13:35:49;;;;;;;;;;;18.20;59.00;;;;;;5088339;28;19919;-75
2021/03/25 13:38:14;;;;;;;;;;;18.30;58.00;;;;;;5085955;28;19913;-76
2021/03/25 13:40:41;;;;;;;;;;;18.30;56.70;;;;;;5092533;28;19916;-77
2021/03/25 13:43:08;;;;;;;;;;;18.20;57.20;;;;;;5091604;28;20449;-76
2021/03/25 13:45:34;;;;;;;;;;;18.10;57.60;;;;;;5091078;28;19958;-77
2021/03/25 13:48:00;;;;;;;;;;;18.20;59.30;;;;;;5092727;28;19912;-77
2021/03/25 13:50:29;;;;;;;;;;;18.20;60.00;;;;;;5092674;28;19914;-77
2021/03/25 13:52:54;;;;;;;;;;;18.20;58.60;;;;;;5091077;28;19908;-77
2021/03/25 13:55:23;;;;;;;;;;;18.20;59.70;;;;;;5091396;28;20365;-77
2021/03/25 13:57:48;;;;;;;;;;;18.30;59.60;;;;;;5092406;28;20453;-77
2021/03/25 14:00:14;;;;;;;;;;;18.30;58.20;;;;;;5092706;28;19952;-77
2021/03/25 14:02:39;;;;;;;;;;;18.30;56.80;;;;;;5092479;28;19908;-76
2021/03/25 14:05:05;;;;;;;;;;;18.30;57.10;;;;;;5086474;28;19908;-77
2021/03/25 14:07:31;;;;;;;;;;;18.30;58.00;;;;;;5092513;28;19908;-77
2021/03/25 14:09:56;;;;;;;;;;;18.30;59.40;;;;;;5092135;28;19911;-77
2021/03/25 14:12:21;;;;;;;;;;;18.20;57.10;;;;;;5091101;28;19911;-76
2021/03/25 14:14:47;;;;;;;;;;;18.20;58.50;;;;;;5090942;28;20282;-77
2021/03/25 14:17:13;;;;;;;;;;;18.10;57.90;;;;;;5090733;28;19954;-77
2021/03/25 14:19:38;;;;;;;;;;;18.10;57.60;;;;;;5092570;28;19910;-77
2021/03/25 14:22:04;;;;;;;;;;;18.10;57.60;;;;;;5093386;28;19908;-76
2021/03/25 14:24:30;;;;;;;;;;;18.30;58.00;;;;;;5092678;28;19915;-76
2021/03/25 14:26:55;;;;;;;;;;;18.30;57.20;;;;;;5087519;28;19908;-77
2021/03/25 14:29:21;;;;;;;;;;;18.30;57.60;;;;;;5076492;28;19920;-77
2021/03/25 14:31:46;;;;;;;;;;;18.20;58.40;;;;;;5084327;28;19908;-77
2021/03/25 14:34:12;;;;;;;;;;;18.10;56.90;;;;;;5074309;28;20024;-77
2021/03/25 14:36:37;;;;;;;;;;;17.90;57.00;;;;;;5082913;28;19923;-77
2021/03/25 14:39:03;;;;;;;;;;;17.80;57.40;;;;;;5090050;28;19915;-77